createdAt,value
2018-11-14T00:02:11.932Z,5.47
2018-11-14T00:07:08.704Z,6.07
2018-11-14T00:12:05.464Z,6.07
2018-11-14T00:17:02.450Z,5.80
2018-11-14T00:21:59.179Z,6.00
2018-11-14T00:26:55.921Z,6.20
2018-11-14T00:31:52.733Z,6.73
2018-11-14T00:36:49.502Z,7.03
2018-11-14T00:41:46.253Z,6.83
2018-11-14T00:46:43.069Z,6.97
2018-11-14T00:51:39.841Z,7.30
2018-11-14T00:56:36.575Z,7.03
2018-11-14T01:01:33.399Z,6.43
2018-11-14T01:06:30.127Z,6.60
2018-11-14T01:11:27.277Z,7.33
2018-11-14T01:16:24.027Z,7.90
2018-11-14T01:21:20.778Z,7.77
2018-11-14T01:26:17.511Z,7.83
2018-11-14T01:31:14.264Z,7.17
2018-11-14T01:36:11.285Z,7.33
2018-11-14T01:41:08.041Z,8.73
2018-11-14T01:46:04.766Z,7.83
2018-11-14T01:51:01.537Z,8.10
2018-11-14T01:55:58.313Z,8.17
2018-11-14T02:00:55.026Z,8.30
2018-11-14T02:05:51.784Z,8.27
2018-11-14T02:10:48.570Z,7.93
2018-11-14T02:15:45.317Z,7.93
2018-11-14T02:20:42.061Z,7.47
2018-11-14T02:25:38.804Z,8.23
2018-11-14T02:30:35.517Z,7.87
2018-11-14T02:35:32.395Z,7.87
2018-11-14T02:40:29.155Z,8.93
2018-11-14T02:45:25.948Z,9.27
2018-11-14T02:50:22.745Z,8.20
2018-11-14T02:55:19.452Z,7.37
2018-11-14T03:00:18.526Z,7.70
2018-11-14T03:05:15.232Z,8.03
2018-11-14T03:10:13.396Z,7.40
2018-11-14T03:15:11.563Z,7.77
2018-11-14T03:20:09.446Z,9.40
2018-11-14T03:25:06.626Z,7.97
2018-11-14T03:30:03.672Z,9.27
2018-11-14T03:35:00.459Z,10.33
2018-11-14T03:39:57.226Z,10.73
2018-11-14T03:44:54.022Z,9.83
2018-11-14T03:49:50.765Z,10.87
2018-11-14T03:54:47.567Z,11.30
2018-11-14T03:59:44.257Z,10.23
2018-11-14T04:04:41.203Z,10.60
2018-11-14T04:09:37.919Z,11.40
2018-11-14T04:14:34.627Z,10.83
2018-11-14T04:19:31.340Z,11.90
2018-11-14T04:24:28.223Z,11.40
2018-11-14T04:29:24.982Z,11.37
2018-11-14T04:34:21.748Z,10.50
2018-11-14T04:39:18.467Z,11.07
2018-11-14T04:44:15.224Z,12.33
2018-11-14T04:49:11.947Z,11.37
2018-11-14T04:54:08.716Z,11.37
2018-11-14T04:59:05.467Z,11.40
2018-11-14T05:04:02.210Z,10.97
2018-11-14T05:08:58.933Z,10.80
2018-11-14T05:13:55.669Z,14.20
2018-11-14T05:18:52.435Z,14.53
2018-11-14T05:23:49.178Z,10.43
2018-11-14T05:28:45.938Z,10.37
2018-11-14T05:33:42.794Z,11.43
2018-11-14T05:38:39.608Z,11.73
2018-11-14T05:43:36.381Z,12.07
2018-11-14T05:48:33.125Z,12.57
2018-11-14T05:53:29.957Z,11.43
2018-11-14T05:58:26.830Z,12.30
2018-11-14T06:03:23.548Z,14.80
2018-11-14T06:08:20.222Z,13.13
2018-11-14T06:13:17.005Z,12.47
2018-11-14T06:18:13.735Z,12.43
2018-11-14T06:23:10.508Z,12.23
2018-11-14T06:28:08.548Z,11.40
2018-11-14T06:33:06.274Z,12.23
2018-11-14T06:38:02.998Z,11.70
2018-11-14T06:42:59.757Z,12.77
2018-11-14T06:47:57.557Z,12.83
2018-11-14T06:52:56.913Z,12.57
2018-11-14T06:57:53.706Z,12.40
2018-11-14T07:02:50.905Z,12.67
2018-11-14T07:07:47.626Z,11.80
2018-11-14T07:12:44.395Z,12.20
2018-11-14T07:17:41.640Z,11.57
2018-11-14T07:22:38.318Z,11.57
2018-11-14T07:27:35.031Z,12.03
2018-11-14T07:32:32.432Z,12.00
2018-11-14T07:37:29.123Z,11.27
2018-11-14T07:42:25.846Z,11.73
2018-11-14T07:47:22.634Z,10.17
2018-11-14T07:52:19.380Z,12.43
2018-11-14T07:57:16.159Z,11.30
2018-11-14T08:02:13.263Z,9.47
2018-11-14T08:07:09.913Z,8.63
2018-11-14T08:12:06.571Z,6.57
2018-11-14T08:17:03.271Z,7.10
2018-11-14T08:21:59.982Z,6.47
2018-11-14T08:26:56.880Z,6.70
2018-11-14T08:31:53.617Z,6.73
2018-11-14T08:36:50.368Z,7.47
2018-11-14T08:41:47.094Z,7.67
2018-11-14T08:46:43.814Z,8.70
2018-11-14T08:51:40.528Z,8.27
2018-11-14T08:56:37.264Z,9.07
2018-11-14T09:01:33.946Z,10.13
2018-11-14T09:06:30.596Z,9.47
2018-11-14T09:11:27.411Z,10.50
2018-11-14T09:16:24.116Z,11.07
2018-11-14T09:21:20.822Z,12.57
2018-11-14T09:26:17.511Z,13.57
2018-11-14T09:31:14.230Z,14.07
2018-11-14T09:36:10.895Z,14.87
2018-11-14T09:41:07.725Z,14.17
2018-11-14T09:46:04.689Z,13.07
2018-11-14T09:51:01.434Z,11.47
2018-11-14T09:55:58.147Z,10.60
2018-11-14T10:00:55.001Z,9.80
2018-11-14T10:05:51.791Z,8.77
2018-11-14T10:10:48.571Z,9.50
2018-11-14T10:15:45.297Z,9.07
2018-11-14T10:20:41.949Z,9.30
2018-11-14T10:25:38.700Z,9.30
2018-11-14T10:30:35.426Z,9.10
2018-11-14T10:35:32.150Z,8.37
2018-11-14T10:40:28.884Z,8.43
2018-11-14T10:45:26.591Z,7.77
2018-11-14T10:50:25.483Z,7.67
2018-11-14T10:55:22.555Z,7.87
2018-11-14T11:00:28.218Z,7.73
2018-11-14T11:05:32.458Z,8.27
2018-11-14T11:10:34.957Z,8.33
2018-11-14T11:15:37.883Z,7.10
2018-11-14T11:20:34.564Z,6.33
2018-11-14T11:25:31.345Z,7.20
2018-11-14T11:30:28.155Z,6.57
2018-11-14T11:35:24.866Z,6.20
2018-11-14T11:40:21.554Z,7.10
2018-11-14T11:45:18.307Z,6.27
2018-11-14T11:50:15.057Z,6.40
2018-11-14T11:55:12.090Z,6.73
2018-11-14T12:00:10.672Z,7.10
2018-11-14T12:05:08.100Z,6.73
2018-11-14T12:10:05.111Z,7.20
2018-11-14T12:15:01.870Z,6.80
2018-11-14T12:19:58.589Z,7.23
2018-11-14T12:24:55.265Z,7.60
2018-11-14T12:29:52.088Z,7.23
2018-11-14T12:34:48.830Z,6.80
2018-11-14T12:39:45.589Z,6.93
2018-11-14T12:44:42.423Z,7.50
2018-11-14T12:49:39.105Z,8.40
2018-11-14T12:54:35.885Z,6.93
2018-11-14T12:59:32.732Z,7.43
2018-11-14T13:04:29.357Z,7.37
2018-11-14T13:09:26.128Z,7.47
2018-11-14T13:14:22.805Z,6.53
2018-11-14T13:19:19.577Z,6.63
2018-11-14T13:24:16.271Z,6.03
2018-11-14T13:29:12.995Z,6.43
2018-11-14T13:34:09.748Z,7.20
2018-11-14T13:39:07.098Z,6.60
2018-11-14T13:44:03.750Z,11.30
2018-11-14T13:49:01.053Z,11.83
2018-11-14T13:53:57.752Z,7.27
2018-11-14T13:58:54.429Z,7.40
2018-11-14T14:03:51.148Z,7.80
2018-11-14T14:08:47.951Z,8.63
2018-11-14T14:13:50.397Z,9.70
2018-11-14T14:18:47.142Z,8.53
2018-11-14T14:23:43.919Z,8.57
2018-11-14T14:28:40.600Z,8.60
2018-11-14T14:33:37.370Z,7.70
2018-11-14T14:38:34.118Z,7.30
2018-11-14T14:43:30.786Z,8.10
2018-11-14T14:48:27.526Z,7.87
2018-11-14T14:53:24.302Z,7.50
2018-11-14T14:58:21.030Z,7.30
2018-11-14T15:03:17.839Z,7.03
2018-11-14T15:08:14.536Z,8.60
2018-11-14T15:13:11.292Z,7.37
2018-11-14T15:18:08.066Z,7.63
2018-11-14T15:23:05.115Z,7.73
2018-11-14T15:28:05.393Z,7.30
2018-11-14T15:33:02.600Z,9.10
2018-11-14T15:37:59.321Z,8.00
2018-11-14T15:42:56.166Z,8.57
2018-11-14T15:47:52.939Z,9.13
2018-11-14T15:52:50.659Z,10.83
2018-11-14T15:57:47.622Z,31.47
2018-11-14T16:02:44.332Z,10.37
2018-11-14T16:07:42.141Z,10.70
2018-11-14T16:12:39.834Z,11.70
2018-11-14T16:17:37.079Z,11.73
2018-11-14T16:22:33.772Z,12.43
2018-11-14T16:27:30.613Z,11.37
2018-11-14T16:32:27.526Z,13.20
2018-11-14T16:37:24.234Z,12.70
2018-11-14T16:42:20.928Z,11.40
2018-11-14T16:47:17.689Z,11.10
2018-11-14T16:52:14.452Z,14.27
2018-11-14T16:57:11.328Z,11.83
2018-11-14T17:02:08.020Z,13.90
2018-11-14T17:07:04.789Z,14.80
2018-11-14T17:12:01.551Z,14.43
2018-11-14T17:16:58.325Z,14.80
2018-11-14T17:21:55.109Z,17.40
2018-11-14T17:26:51.848Z,15.20
2018-11-14T17:31:48.852Z,17.30
2018-11-14T17:36:45.611Z,19.00
2018-11-14T17:41:43.135Z,18.13
2018-11-14T17:46:39.803Z,18.67
2018-11-14T17:51:36.520Z,19.33
2018-11-14T17:56:33.247Z,18.73
2018-11-14T18:01:30.042Z,19.20
2018-11-14T18:06:26.946Z,17.83
2018-11-14T18:11:23.733Z,19.07
2018-11-14T18:16:20.457Z,20.30
2018-11-14T18:21:17.276Z,19.73
2018-11-14T18:26:13.996Z,19.67
2018-11-14T18:31:10.672Z,18.87
2018-11-14T18:36:07.496Z,18.40
2018-11-14T18:41:04.253Z,19.40
2018-11-14T18:46:01.073Z,19.63
2018-11-14T18:50:57.809Z,18.73
2018-11-14T18:55:54.532Z,19.90
2018-11-14T19:00:51.250Z,19.30
2018-11-14T19:05:47.999Z,19.37
2018-11-14T19:10:44.682Z,19.20
2018-11-14T19:15:41.349Z,18.90
2018-11-14T19:20:38.954Z,19.03
2018-11-14T19:25:36.848Z,18.97
2018-11-14T19:30:35.102Z,19.07
2018-11-14T19:35:31.898Z,19.57
2018-11-14T19:40:30.059Z,19.50
2018-11-14T19:45:29.323Z,18.67
2018-11-14T19:50:26.330Z,18.70
2018-11-14T19:55:24.149Z,19.70
2018-11-14T20:00:23.695Z,19.63
2018-11-14T20:05:21.062Z,18.43
2018-11-14T20:10:25.944Z,17.53
2018-11-14T20:15:24.311Z,18.57
2018-11-14T20:20:22.366Z,18.53
2018-11-14T20:25:19.220Z,18.37
2018-11-14T20:30:18.739Z,18.87
2018-11-14T20:35:16.652Z,17.27
2018-11-14T20:40:14.637Z,15.33
2018-11-14T20:45:13.176Z,15.70
2018-11-14T20:50:11.583Z,15.57
2018-11-14T20:55:09.230Z,15.37
2018-11-14T21:00:07.711Z,15.60
2018-11-14T21:05:05.290Z,14.73
2018-11-14T21:10:01.986Z,15.43
2018-11-14T21:14:58.759Z,15.07
2018-11-14T21:19:55.534Z,14.53
2018-11-14T21:24:52.338Z,15.27
2018-11-14T21:29:49.064Z,14.77
2018-11-14T21:34:45.797Z,15.20
2018-11-14T21:39:42.514Z,14.77
2018-11-14T21:44:39.317Z,15.40
2018-11-14T21:49:36.064Z,14.10
2018-11-14T21:54:32.853Z,15.47
2018-11-14T21:59:29.630Z,15.00
2018-11-14T22:04:26.392Z,15.77
2018-11-14T22:09:23.073Z,15.10
2018-11-14T22:14:19.849Z,15.20
2018-11-14T22:19:16.604Z,15.03
2018-11-14T22:24:13.312Z,14.37
2018-11-14T22:29:10.030Z,14.67
2018-11-14T22:34:06.810Z,15.53
2018-11-14T22:39:05.533Z,14.77
2018-11-14T22:44:02.459Z,15.47
2018-11-14T22:48:59.231Z,14.93
2018-11-14T22:53:55.909Z,15.23
2018-11-14T22:58:52.654Z,14.87
2018-11-14T23:03:49.339Z,15.43
2018-11-14T23:08:46.012Z,15.57
2018-11-14T23:13:42.718Z,14.93
2018-11-14T23:18:50.578Z,15.57
2018-11-14T23:23:47.351Z,15.83
2018-11-14T23:28:44.138Z,15.37
2018-11-14T23:33:40.883Z,15.73
2018-11-14T23:38:37.660Z,15.27
2018-11-14T23:43:34.393Z,14.87
2018-11-14T23:48:31.132Z,15.60
2018-11-14T23:53:27.785Z,16.27
2018-11-14T23:58:24.489Z,16.00
